Terminal Aerodrome Forecast
Issued by NWS Paducah, KY

Home | Current Version | Previous Version | Text Only | Print | Product List | Glossary On
Versions: 1 2 3 4 5 6 7 8 9 10 11 12 13 14 15 16 17 18 19
000
FTUS43 KPAH 160500
TAFPAH
TAF
KPAH 160520Z 1606/1706 24006KT P6SM SCT016 BKN045
      TEMPO 1606/1609 4SM BR SCT008 OVC021
     FM161130 34007KT P6SM SCT013 BKN070
     FM161600 02005KT P6SM SKC=

USA.gov is the U.S. government's official web portal to all federal, state and local government web resources and services.